Time;durP1;ratioP1;P1;durP2;ratioP2;P2;SDS_P1;SDS_P2;PMS_P1;PMS_P2;Temp;Humidity;BMP_temperature;BMP_pressure;BME280_temperature;BME280_humidity;BME280_pressure;Samples;Min_cycle;Max_cycle;Signal;HPM_P1;HPM_P2
2022/10/01 00:01:05;;;;;;;;;4.50;3.00;;;;;14.03;72.13;100166.97;5013883;28;45341;-59
2022/10/01 00:03:31;;;;;;;;;4.00;4.00;;;;;14.13;71.90;100164.34;4999388;28;45353;-58
2022/10/01 00:06:18;;;;;;;;;2.25;2.25;;;;;14.07;71.79;100135.84;5016636;28;45360;-59
2022/10/01 00:08:48;;;;;;;;;2.00;2.00;;;;;14.10;71.68;100153.84;4982650;28;45399;-58
2022/10/01 00:11:15;;;;;;;;;1.60;1.60;;;;;14.07;72.70;100138.63;5017127;28;45387;-59
2022/10/01 00:13:41;;;;;;;;;3.00;3.00;;;;;14.04;72.18;100124.47;5016774;28;46960;-59
2022/10/01 00:16:09;;;;;;;;;4.00;4.00;;;;;14.03;72.57;100131.91;5016982;28;45366;-59
2022/10/01 00:18:39;;;;;;;;;3.00;2.00;;;;;13.98;72.79;100108.94;4999316;28;45354;-58
2022/10/01 00:21:06;;;;;;;;;3.60;3.60;;;;;14.07;72.64;100115.69;5017035;28;45520;-60
2022/10/01 00:23:32;;;;;;;;;2.20;2.20;;;;;14.09;72.69;100141.94;5017097;28;46588;-58
2022/10/01 00:26:07;;;;;;;;;2.00;2.00;;;;;14.09;72.41;100117.13;5016583;28;45330;-59
2022/10/01 00:28:33;;;;;;;;;1.80;1.80;;;;;14.10;73.03;100082.09;4979088;28;45519;-58
2022/10/01 00:30:58;;;;;;;;;3.00;3.00;;;;;14.12;72.48;100090.09;4995623;28;45404;-58
2022/10/01 00:33:25;;;;;;;;;4.50;4.50;;;;;14.10;72.65;100088.44;4996227;28;46366;-58
2022/10/01 00:35:53;;;;;;;;;2.00;2.00;;;;;14.06;73.27;100078.16;4994881;28;45529;-58
2022/10/01 00:38:18;;;;;;;;;3.40;2.80;;;;;14.10;72.42;100098.66;4996861;28;45331;-59
2022/10/01 00:40:44;;;;;;;;;2.00;2.00;;;;;14.13;74.08;100109.16;4996713;28;45554;-59
2022/10/01 00:43:20;;;;;;;;;4.50;4.00;;;;;14.07;73.61;100096.38;4996273;28;45357;-58
2022/10/01 00:45:47;;;;;;;;;2.20;2.20;;;;;14.14;73.50;100097.03;4996192;28;45318;-63
2022/10/01 00:48:12;;;;;;;;;2.00;2.00;;;;;14.04;73.93;100099.66;4996191;28;45262;-58
2022/10/01 00:50:38;;;;;;;;;4.25;4.25;;;;;14.14;73.63;100116.34;4995272;28;45556;-58
2022/10/01 00:53:06;;;;;;;;;3.00;3.00;;;;;14.12;73.78;100112.16;4996298;28;45279;-58
2022/10/01 00:55:36;;;;;;;;;3.00;3.00;;;;;14.15;73.88;100108.94;5011187;28;45385;-58
2022/10/01 00:58:03;;;;;;;;;3.00;2.20;;;;;14.12;73.96;100101.97;4994964;28;45399;-58
2022/10/01 01:00:28;;;;;;;;;2.80;2.40;;;;;14.15;74.20;100119.97;5011692;28;45341;-58
2022/10/01 01:02:54;;;;;;;;;4.00;2.75;;;;;14.15;74.78;100109.75;4996090;28;46592;-58
2022/10/01 01:05:21;;;;;;;;;3.25;3.25;;;;;14.19;74.33;100088.84;4996183;28;45609;-58
2022/10/01 01:07:48;;;;;;;;;3.00;3.00;;;;;14.15;74.86;100097.88;4996032;28;45351;-58
2022/10/01 01:10:15;;;;;;;;;2.00;2.00;;;;;14.19;75.13;100102.66;4994703;28;45578;-56
2022/10/01 01:12:47;;;;;;;;;1.60;1.60;;;;;14.16;75.50;100111.44;4995674;28;46280;-56
2022/10/01 01:15:24;;;;;;;;;4.00;4.00;;;;;14.14;75.52;100102.56;4994605;28;45423;-58
2022/10/01 01:18:17;;;;;;;;;2.40;2.40;;;;;14.09;75.84;100108.84;4996133;28;45382;-56
2022/10/01 01:21:12;;;;;;;;;2.60;1.20;;;;;13.95;75.37;100058.69;4996218;28;45455;-58
2022/10/01 01:23:45;;;;;;;;;2.60;2.00;;;;;14.13;76.07;100117.44;4995548;28;46573;-55
2022/10/01 01:26:23;;;;;;;;;1.60;1.60;;;;;14.12;75.65;100101.13;5010972;28;45478;-59
2022/10/01 01:28:50;;;;;;;;;3.00;3.00;;;;;14.05;76.11;100091.09;5005214;28;45494;-57
2022/10/01 01:31:21;;;;;;;;;2.80;1.60;;;;;14.12;76.33;100093.69;4981576;28;45321;-57
2022/10/01 01:33:48;;;;;;;;;1.60;1.60;;;;;14.00;76.34;100051.56;4981470;28;47126;-58
2022/10/01 01:36:17;;;;;;;;;3.20;2.60;;;;;13.99;76.51;100059.03;4981691;28;45412;-58
2022/10/01 01:38:45;;;;;;;;;1.60;1.60;;;;;14.17;76.17;100087.41;4981905;28;45365;-56
2022/10/01 01:41:10;;;;;;;;;2.00;2.00;;;;;14.15;76.49;100064.78;4997932;28;45578;-57
2022/10/01 01:43:38;;;;;;;;;2.25;1.25;;;;;13.94;76.00;100034.94;4997167;28;45501;-58
2022/10/01 01:46:04;;;;;;;;;1.20;1.20;;;;;14.16;76.53;100070.03;4981189;28;45523;-57
2022/10/01 01:48:30;;;;;;;;;3.20;0.20;;;;;14.15;76.53;100073.88;4997738;28;45421;-58
2022/10/01 01:51:05;;;;;;;;;0.00;0.00;;;;;14.17;76.30;100074.47;4997554;28;45319;-58
2022/10/01 01:53:31;;;;;;;;;0.80;0.80;;;;;14.18;76.48;100067.88;4990049;28;45363;-58
2022/10/01 01:55:59;;;;;;;;;1.00;0.00;;;;;14.19;76.06;100043.88;4997098;28;45540;-58
2022/10/01 01:58:25;;;;;;;;;0.80;0.80;;;;;14.27;76.44;100056.38;4997720;28;45386;-59
2022/10/01 02:00:51;;;;;;;;;1.60;0.40;;;;;14.28;76.88;100060.81;5015012;28;45517;-59
2022/10/01 02:03:22;;;;;;;;;1.00;1.00;;;;;14.30;76.68;100062.22;5014824;28;45412;-58
2022/10/01 02:06:03;;;;;;;;;0.00;0.00;;;;;14.32;76.48;100054.56;5014949;28;45338;-57
2022/10/01 02:08:33;;;;;;;;;0.60;0.60;;;;;14.31;76.40;100052.84;5015395;28;45440;-56
2022/10/01 02:11:25;;;;;;;;;0.80;0.00;;;;;14.31;76.72;100046.53;4980900;28;45648;-58
2022/10/01 02:14:01;;;;;;;;;0.40;0.40;;;;;14.29;76.47;100059.75;5014539;28;46422;-58
2022/10/01 02:16:32;;;;;;;;;1.80;1.00;;;;;14.16;76.38;100036.94;4996851;28;45400;-58
2022/10/01 02:19:27;;;;;;;;;1.00;1.00;;;;;14.34;76.78;100057.03;4980205;28;45412;-58
2022/10/01 02:22:04;;;;;;;;;0.60;0.60;;;;;14.37;76.73;100062.06;5014706;28;45430;-56
2022/10/01 02:24:33;;;;;;;;;0.00;0.00;;;;;14.37;76.62;100045.50;4997014;28;46668;-58
2022/10/01 02:26:59;;;;;;;;;0.00;0.00;;;;;14.25;76.70;100029.03;4996548;28;45399;-58
2022/10/01 02:29:25;;;;;;;;;1.00;1.00;;;;;14.32;76.87;100024.19;4980379;28;45460;-58
2022/10/01 02:31:52;;;;;;;;;0.00;0.00;;;;;14.40;76.98;100044.97;4997115;28;45775;-58
2022/10/01 02:34:18;;;;;;;;;0.00;0.00;;;;;14.42;76.40;100036.44;4996600;28;45732;-58
2022/10/01 02:36:44;;;;;;;;;1.00;1.00;;;;;14.45;76.99;100042.28;4996813;28;46183;-58
2022/10/01 02:39:10;;;;;;;;;1.80;1.00;;;;;14.47;76.26;100040.09;5014767;28;45548;-57
2022/10/01 02:41:35;;;;;;;;;0.20;0.20;;;;;14.49;76.57;100043.47;5017828;28;45322;-58
2022/10/01 02:44:09;;;;;;;;;1.00;1.00;;;;;14.49;76.36;100042.63;5017876;28;45325;-59
2022/10/01 02:46:53;;;;;;;;;0.20;0.20;;;;;14.49;76.81;100031.56;4984275;28;45412;-58
2022/10/01 02:49:19;;;;;;;;;0.00;0.00;;;;;14.46;76.67;100029.34;4985068;28;45360;-58
2022/10/01 02:51:57;;;;;;;;;0.00;0.00;;;;;14.52;77.03;100033.84;4967706;28;46025;-60
2022/10/01 02:54:26;;;;;;;;;2.00;1.00;;;;;14.48;76.49;99994.84;5017798;28;45482;-56
2022/10/01 02:59:35;;;;;;;;;0.60;0.60;;;;;14.59;77.00;100004.09;5002624;28;45410;-58
2022/10/01 03:02:01;;;;;;;;;0.00;0.00;;;;;14.59;76.59;99992.22;5016514;28;45521;-59
2022/10/01 03:04:26;;;;;;;;;0.00;0.00;;;;;14.59;76.67;100006.03;5017679;28;45562;-59
2022/10/01 03:06:52;;;;;;;;;1.00;1.00;;;;;14.50;77.28;99991.81;5017830;28;45450;-58
2022/10/01 03:09:18;;;;;;;;;1.00;1.00;;;;;14.58;76.95;99996.88;5000147;28;45376;-58
2022/10/01 03:11:43;;;;;;;;;0.00;0.00;;;;;14.59;77.35;99997.75;4999950;28;45427;-59
2022/10/01 03:14:09;;;;;;;;;0.25;0.00;;;;;14.58;76.94;99977.56;5017506;28;46953;-60
2022/10/01 03:16:35;;;;;;;;;0.80;0.80;;;;;14.48;77.55;99964.47;5017530;28;45288;-59
2022/10/01 03:19:01;;;;;;;;;0.00;0.00;;;;;14.61;77.39;99981.75;5018015;28;45334;-59
2022/10/01 03:21:26;;;;;;;;;0.00;0.00;;;;;14.60;77.19;99988.34;4999729;28;45625;-56
2022/10/01 03:23:52;;;;;;;;;0.00;0.00;;;;;14.60;77.22;100003.00;5017514;28;46521;-57
2022/10/01 03:26:17;;;;;;;;;0.00;0.00;;;;;14.37;77.03;99960.75;4999517;28;45379;-59
2022/10/01 03:28:43;;;;;;;;;0.00;0.00;;;;;14.61;77.78;99987.25;5017739;28;45760;-59
2022/10/01 03:31:09;;;;;;;;;0.00;0.00;;;;;14.58;77.69;99996.06;5018096;28;45819;-59
2022/10/01 03:33:34;;;;;;;;;0.00;0.00;;;;;14.57;77.57;99992.47;5017532;28;45812;-59
2022/10/01 03:36:01;;;;;;;;;0.00;0.00;;;;;14.56;77.33;99965.13;4999718;28;45804;-59
2022/10/01 03:38:27;;;;;;;;;0.00;0.00;;;;;14.66;77.22;99992.84;5017723;28;45398;-59
2022/10/01 03:40:53;;;;;;;;;0.00;0.00;;;;;14.70;77.34;99996.78;4999969;28;45441;-59
2022/10/01 03:43:19;;;;;;;;;0.00;0.00;;;;;14.72;77.67;99990.97;5017479;28;46060;-60
2022/10/01 03:45:44;;;;;;;;;0.00;0.00;;;;;14.73;78.08;100001.78;5017176;28;45732;-59
2022/10/01 03:48:10;;;;;;;;;0.00;0.00;;;;;14.75;78.07;100007.06;4999825;28;45360;-59
2022/10/01 03:50:35;;;;;;;;;0.00;0.00;;;;;14.68;77.85;99978.78;5017685;28;45968;-59
2022/10/01 03:53:01;;;;;;;;;0.00;0.00;;;;;14.74;78.51;100008.19;5016583;28;45847;-59
2022/10/01 03:55:27;;;;;;;;;0.00;0.00;;;;;14.74;78.80;99962.03;5017285;28;45327;-59
2022/10/01 03:57:52;;;;;;;;;0.00;0.00;;;;;14.75;78.21;99993.25;5017264;28;45372;-59
2022/10/01 04:00:18;;;;;;;;;0.00;0.00;;;;;14.58;78.86;99990.56;5017775;28;45567;-58
2022/10/01 04:02:43;;;;;;;;;0.00;0.00;;;;;14.59;79.19;99968.22;4999095;28;45517;-59
2022/10/01 04:05:09;;;;;;;;;0.00;0.00;;;;;14.77;79.30;100005.72;4999582;28;45297;-59
2022/10/01 04:07:34;;;;;;;;;0.00;0.00;;;;;14.59;79.06;99994.97;4999125;28;45279;-60
2022/10/01 04:10:00;;;;;;;;;0.00;0.00;;;;;14.80;79.19;100034.78;5017559;28;45624;-59
2022/10/01 04:12:25;;;;;;;;;0.00;0.00;;;;;14.80;79.76;100042.22;4998667;28;47674;-59
2022/10/01 04:14:51;;;;;;;;;0.00;0.00;;;;;14.79;79.54;100052.44;4999304;28;45316;-56
2022/10/01 04:17:16;;;;;;;;;0.00;0.00;;;;;14.81;79.59;100046.63;4999105;28;45499;-58
2022/10/01 04:19:42;;;;;;;;;0.00;0.00;;;;;14.85;79.28;100051.41;5017338;28;45400;-59
2022/10/01 04:22:07;;;;;;;;;0.00;0.00;;;;;14.88;80.22;100047.28;4958418;28;46403;-59
2022/10/01 04:24:33;;;;;;;;;0.00;0.00;;;;;14.80;79.77;100033.91;5009478;28;45319;-58
2022/10/01 04:26:59;;;;;;;;;0.00;0.00;;;;;14.84;80.18;100057.19;5017034;28;45385;-59
2022/10/01 04:29:24;;;;;;;;;0.00;0.00;;;;;14.94;80.01;100073.88;4998985;28;45375;-59
2022/10/01 04:31:52;;;;;;;;;0.00;0.00;;;;;14.94;80.07;100060.06;4998729;28;46778;-59
2022/10/01 04:34:17;;;;;;;;;0.00;0.00;;;;;14.93;80.37;100071.38;4998978;28;45458;-59
2022/10/01 04:36:43;;;;;;;;;0.00;0.00;;;;;14.97;80.89;100072.53;5016638;28;45393;-58
2022/10/01 04:39:08;;;;;;;;;0.00;0.00;;;;;14.39;80.25;99978.97;5017031;28;45391;-58
2022/10/01 04:41:34;;;;;;;;;0.00;0.00;;;;;15.03;80.15;100088.91;5016236;28;45204;-56
2022/10/01 04:43:59;;;;;;;;;0.00;0.00;;;;;15.05;80.11;100088.63;5016377;28;45380;-58
2022/10/01 04:46:25;;;;;;;;;0.00;0.00;;;;;15.06;80.56;100093.09;5016497;28;45356;-58
2022/10/01 04:48:51;;;;;;;;;0.00;0.00;;;;;14.90;80.48;100059.75;4982542;28;45429;-58
2022/10/01 04:51:17;;;;;;;;;0.00;0.00;;;;;15.13;80.35;100090.97;5016143;28;45658;-59
2022/10/01 04:53:42;;;;;;;;;0.00;0.00;;;;;15.00;80.53;100083.06;5016357;28;45831;-58
2022/10/01 04:56:08;;;;;;;;;0.25;0.00;;;;;15.17;80.18;100100.41;5016160;28;45449;-58
2022/10/01 04:58:33;;;;;;;;;0.00;0.00;;;;;15.17;80.62;100102.34;4998726;28;45477;-59
2022/10/01 05:00:59;;;;;;;;;0.00;0.00;;;;;15.17;80.47;100116.16;4997954;28;47443;-59
2022/10/01 05:03:25;;;;;;;;;0.00;0.00;;;;;15.18;80.26;100106.78;4997159;28;45559;-59
2022/10/01 05:05:50;;;;;;;;;0.00;0.00;;;;;15.19;80.22;100105.69;4998366;28;45390;-58
2022/10/01 05:08:16;;;;;;;;;0.00;0.00;;;;;15.19;80.26;100116.72;5016078;28;45368;-59
2022/10/01 05:10:41;;;;;;;;;0.00;0.00;;;;;15.21;80.33;100114.53;5016092;28;45472;-59
2022/10/01 05:13:07;;;;;;;;;0.00;0.00;;;;;15.22;80.29;100119.00;4997621;28;45360;-59
2022/10/01 05:15:34;;;;;;;;;0.00;0.00;;;;;15.24;79.83;100115.94;5016093;28;45268;-59
2022/10/01 05:18:00;;;;;;;;;0.00;0.00;;;;;15.00;80.69;100086.66;4982320;28;45478;-59
2022/10/01 05:20:25;;;;;;;;;0.00;0.00;;;;;15.23;80.00;100131.72;5015848;28;46035;-59
2022/10/01 05:22:51;;;;;;;;;0.00;0.00;;;;;15.25;80.36;100139.72;5015704;28;45350;-59
2022/10/01 05:25:17;;;;;;;;;1.00;1.00;;;;;15.24;80.06;100138.06;5015641;28;45387;-59
2022/10/01 05:27:43;;;;;;;;;0.00;0.00;;;;;15.16;80.39;100131.91;4998175;28;45917;-57
2022/10/01 05:30:09;;;;;;;;;0.00;0.00;;;;;15.25;79.96;100140.56;4998331;28;45565;-58
2022/10/01 05:32:35;;;;;;;;;0.00;0.00;;;;;15.26;80.04;100153.31;5015196;28;45488;-58
2022/10/01 05:35:01;;;;;;;;;0.20;0.00;;;;;15.28;80.24;100153.91;4997965;28;45456;-59
2022/10/01 05:37:26;;;;;;;;;0.00;0.00;;;;;14.93;80.26;100105.34;5015886;28;45255;-59
2022/10/01 05:39:52;;;;;;;;;0.00;0.00;;;;;15.29;80.39;100174.91;4997932;28;46738;-59
2022/10/01 05:42:17;;;;;;;;;0.00;0.00;;;;;15.27;80.52;100166.03;4998087;28;45348;-59
2022/10/01 05:44:46;;;;;;;;;0.00;0.00;;;;;15.29;80.58;100174.91;5015785;28;45221;-59
2022/10/01 05:47:15;;;;;;;;;0.00;0.00;;;;;15.34;80.39;100184.34;4998094;28;45611;-59
2022/10/01 05:49:42;;;;;;;;;0.40;0.00;;;;;15.36;80.67;100196.00;5015529;28;45955;-59
2022/10/01 05:52:09;;;;;;;;;0.00;0.00;;;;;15.35;80.01;100195.16;5015599;28;45284;-60
2022/10/01 05:54:35;;;;;;;;;0.60;0.00;;;;;15.37;80.32;100194.91;5015587;28;45527;-58
2022/10/01 05:57:00;;;;;;;;;0.00;0.00;;;;;15.40;79.94;100197.16;5015802;28;45454;-59
2022/10/01 05:59:26;;;;;;;;;0.00;0.00;;;;;15.40;80.05;100199.91;5015293;28;46464;-58
2022/10/01 06:01:52;;;;;;;;;0.00;0.00;;;;;15.37;80.16;100204.03;4997432;28;45525;-58
2022/10/01 06:04:17;;;;;;;;;0.00;0.00;;;;;15.35;80.03;100203.47;4997992;28;45971;-58
2022/10/01 06:06:43;;;;;;;;;0.00;0.00;;;;;15.04;79.81;100154.16;5015560;28;45497;-58
2022/10/01 06:09:08;;;;;;;;;0.00;0.00;;;;;15.45;79.68;100222.09;5015445;28;46142;-57
2022/10/01 06:11:37;;;;;;;;;0.50;0.00;;;;;15.47;79.47;100225.44;5015073;28;45478;-58
2022/10/01 06:14:03;;;;;;;;;0.00;0.00;;;;;15.45;79.58;100230.41;5015230;28;45351;-59
2022/10/01 06:16:29;;;;;;;;;0.00;0.00;;;;;15.48;79.67;100240.13;5003491;28;45592;-59
2022/10/01 06:18:56;;;;;;;;;0.00;0.00;;;;;15.44;79.31;100234.25;5015715;28;46039;-59
2022/10/01 06:21:25;;;;;;;;;0.00;0.00;;;;;15.48;79.20;100246.47;5035132;28;45895;-58
2022/10/01 06:23:51;;;;;;;;;0.00;0.00;;;;;15.52;79.06;100249.59;5034764;28;45487;-58
2022/10/01 06:26:17;;;;;;;;;1.00;0.00;;;;;15.49;78.83;100244.53;5035152;28;45581;-59
2022/10/01 06:28:42;;;;;;;;;0.00;0.00;;;;;15.51;79.16;100251.50;5034469;28;46552;-56
2022/10/01 06:31:08;;;;;;;;;0.00;0.00;;;;;15.38;78.63;100232.53;5034929;28;45309;-58
2022/10/01 06:33:34;;;;;;;;;0.00;0.00;;;;;15.51;78.47;100251.50;5034614;28;45394;-62
2022/10/01 06:35:59;;;;;;;;;0.00;0.00;;;;;15.52;78.03;100250.41;5020921;28;45381;-58
2022/10/01 06:38:25;;;;;;;;;1.00;0.00;;;;;15.56;78.08;100254.34;5014494;28;45721;-59
2022/10/01 06:40:52;;;;;;;;;0.00;0.00;;;;;15.53;78.19;100252.06;4996901;28;45413;-60
2022/10/01 06:43:17;;;;;;;;;0.00;0.00;;;;;15.54;77.34;100261.22;5014668;28;45872;-58
2022/10/01 06:45:43;;;;;;;;;1.25;1.25;;;;;15.59;76.92;100272.34;5014746;28;45330;-57
2022/10/01 06:48:13;;;;;;;;;0.00;0.00;;;;;15.62;77.08;100271.00;5014243;28;45560;-58
2022/10/01 06:50:39;;;;;;;;;1.00;1.00;;;;;15.64;77.16;100266.03;4997005;28;45371;-58
2022/10/01 06:53:05;;;;;;;;;1.40;0.00;;;;;15.69;77.09;100271.63;5013159;28;45454;-59
2022/10/01 06:55:31;;;;;;;;;0.00;0.00;;;;;15.40;76.81;100230.31;5014900;28;45545;-59
2022/10/01 06:58:02;;;;;;;;;0.80;0.80;;;;;15.69;77.05;100282.69;4980529;28;46340;-59
2022/10/01 07:00:29;;;;;;;;;0.00;0.00;;;;;15.71;77.21;100275.78;5014581;28;45334;-59
2022/10/01 07:02:54;;;;;;;;;2.00;0.00;;;;;15.72;77.44;100276.63;5013963;28;45370;-59
2022/10/01 07:05:21;;;;;;;;;0.00;0.00;;;;;15.73;77.51;100281.06;5014960;28;45390;-59
2022/10/01 07:07:49;;;;;;;;;0.60;0.60;;;;;15.73;77.39;100286.59;5014410;28;46727;-58
2022/10/01 07:10:19;;;;;;;;;1.00;1.00;;;;;15.58;76.71;100262.34;5014263;28;45353;-58
2022/10/01 07:12:45;;;;;;;;;0.00;0.00;;;;;15.56;77.07;100253.47;5014148;28;45162;-59
2022/10/01 07:15:10;;;;;;;;;2.40;0.00;;;;;15.78;76.91;100294.97;4996694;28;45607;-58
2022/10/01 07:17:42;;;;;;;;;0.00;0.00;;;;;15.41;76.77;100252.19;5014386;28;45766;-58
2022/10/01 07:20:08;;;;;;;;;1.40;1.40;;;;;15.81;77.01;100313.00;4996264;28;45977;-58
2022/10/01 07:22:33;;;;;;;;;0.25;0.25;;;;;15.84;76.73;100316.09;5014355;28;45860;-58
2022/10/01 07:24:59;;;;;;;;;0.00;0.00;;;;;15.64;77.03;100282.63;4996580;28;45246;-58
2022/10/01 07:27:25;;;;;;;;;1.00;1.00;;;;;15.81;76.76;100318.53;5015192;28;46723;-59
2022/10/01 07:29:51;;;;;;;;;2.00;0.25;;;;;15.78;76.95;100314.34;5014547;28;45252;-63
2022/10/01 07:32:17;;;;;;;;;0.00;0.00;;;;;15.86;76.69;100336.03;4993702;28;45972;-57
2022/10/01 07:34:43;;;;;;;;;2.00;1.00;;;;;15.85;76.59;100339.88;4999672;28;45994;-58
2022/10/01 07:37:08;;;;;;;;;1.00;1.00;;;;;15.84;76.16;100340.13;5017390;28;46411;-57
2022/10/01 07:39:35;;;;;;;;;3.50;3.00;;;;;15.79;75.60;100335.38;5017360;28;45414;-51
2022/10/01 07:42:00;;;;;;;;;1.60;1.60;;;;;15.78;76.28;100328.19;4999525;28;45536;-57
2022/10/01 07:44:27;;;;;;;;;5.25;2.50;;;;;15.91;75.67;100342.72;5017224;28;45342;-59
2022/10/01 07:46:53;;;;;;;;;2.20;2.20;;;;;15.74;75.41;100323.41;5017179;28;47592;-58
2022/10/01 07:49:19;;;;;;;;;3.00;3.00;;;;;15.93;75.05;100352.47;5017285;28;45444;-59
2022/10/01 07:51:44;;;;;;;;;3.00;1.00;;;;;15.93;74.52;100354.41;5016853;28;45321;-58
2022/10/01 07:54:10;;;;;;;;;8.00;3.25;;;;;15.93;74.25;100351.63;5017179;28;45256;-59
2022/10/01 07:56:36;;;;;;;;;2.00;2.00;;;;;16.00;73.67;100366.09;5017116;28;45622;-59
2022/10/01 07:59:01;;;;;;;;;1.00;1.00;;;;;15.98;72.92;100369.16;5017099;28;45426;-58
2022/10/01 08:01:29;;;;;;;;;2.00;2.00;;;;;16.00;72.94;100377.19;5017220;28;45433;-60
2022/10/01 08:03:54;;;;;;;;;2.00;2.00;;;;;16.04;72.71;100374.72;4999455;28;45550;-60
2022/10/01 08:06:20;;;;;;;;;2.75;2.00;;;;;16.03;72.61;100378.59;5016649;28;45446;-60
2022/10/01 08:08:45;;;;;;;;;5.00;1.00;;;;;16.01;71.68;100370.53;5016976;28;45394;-59
2022/10/01 08:11:13;;;;;;;;;2.75;1.00;;;;;16.12;70.96;100371.53;5016865;28;45303;-59
2022/10/01 08:13:39;;;;;;;;;1.00;1.00;;;;;16.20;71.20;100375.75;4999535;28;45618;-59
2022/10/01 08:16:06;;;;;;;;;3.00;1.80;;;;;16.15;70.60;100359.06;4998681;28;46144;-59
2022/10/01 08:18:32;;;;;;;;;4.20;2.00;;;;;16.20;70.88;100348.06;4986060;28;45724;-59
2022/10/01 08:21:00;;;;;;;;;2.40;1.80;;;;;16.39;69.14;100387.34;5014804;28;45482;-59
2022/10/01 08:23:26;;;;;;;;;1.60;1.00;;;;;16.39;69.89;100390.13;5034021;28;45605;-58
2022/10/01 08:25:52;;;;;;;;;2.50;2.50;;;;;16.24;69.21;100374.16;5000441;28;46371;-61
2022/10/01 08:28:18;;;;;;;;;2.00;1.75;;;;;16.40;68.62;100400.91;4999848;28;45309;-58
2022/10/01 08:30:43;;;;;;;;;4.00;3.00;;;;;16.37;68.69;100406.13;5035315;28;45299;-58
2022/10/01 08:33:10;;;;;;;;;2.00;2.00;;;;;16.13;69.00;100367.66;5020292;28;45655;-59
2022/10/01 08:35:39;;;;;;;;;3.00;3.00;;;;;16.38;69.36;100416.13;4994656;28;45478;-59
2022/10/01 08:38:05;;;;;;;;;1.00;1.00;;;;;16.21;69.11;100382.97;5015121;28;45376;-59
2022/10/01 08:40:36;;;;;;;;;3.00;2.00;;;;;16.18;69.14;100389.88;4997253;28;45429;-56
2022/10/01 08:43:05;;;;;;;;;2.80;1.00;;;;;16.40;69.08;100423.06;5015240;28;45500;-59
2022/10/01 08:45:43;;;;;;;;;4.20;2.00;;;;;16.43;69.18;100429.22;5015054;28;46021;-60
2022/10/01 08:48:36;;;;;;;;;3.20;3.20;;;;;16.44;68.75;100426.16;5014517;28;45462;-62
2022/10/01 08:51:14;;;;;;;;;1.80;1.80;;;;;16.28;69.11;100403.00;4981782;28;45419;-60
2022/10/01 08:53:52;;;;;;;;;1.40;1.40;;;;;16.50;69.06;100438.16;4999283;28;45387;-60
2022/10/01 08:56:22;;;;;;;;;1.80;1.80;;;;;16.56;69.08;100455.66;4998862;28;45464;-56
2022/10/01 08:58:57;;;;;;;;;3.60;2.40;;;;;16.57;69.04;100452.63;4990018;28;45436;-59
2022/10/01 09:01:26;;;;;;;;;3.40;3.40;;;;;16.57;69.27;100455.41;5017022;28;45360;-59
2022/10/01 09:03:51;;;;;;;;;4.00;1.40;;;;;16.61;69.42;100462.13;5016657;28;45450;-60
2022/10/01 09:06:19;;;;;;;;;2.60;1.00;;;;;16.65;69.73;100463.25;5017144;28;45649;-60
2022/10/01 09:08:49;;;;;;;;;2.80;1.00;;;;;16.38;70.41;100418.88;5033081;28;45435;-58
2022/10/01 09:11:22;;;;;;;;;2.00;1.00;;;;;16.55;69.93;100446.53;5015408;28;45493;-59
2022/10/01 09:14:00;;;;;;;;;4.80;2.20;;;;;16.15;70.04;100364.63;5034860;28;45356;-60
2022/10/01 09:16:31;;;;;;;;;1.20;1.00;;;;;16.79;69.92;100469.22;5034696;28;46257;-62
2022/10/01 09:19:18;;;;;;;;;4.60;3.40;;;;;16.84;70.10;100470.38;5008004;28;45626;-59
2022/10/01 09:21:56;;;;;;;;;3.40;2.00;;;;;16.80;69.77;100464.50;5033724;28;45382;-60
2022/10/01 09:24:57;;;;;;;;;3.20;2.80;;;;;16.62;70.02;100427.75;4985501;28;45443;-60
2022/10/01 09:27:26;;;;;;;;;4.00;2.60;;;;;16.84;70.00;100465.66;5005543;28;46095;-61
2022/10/01 09:30:06;;;;;;;;;2.20;2.20;;;;;16.92;69.55;100487.38;4992824;28;45509;-60
2022/10/01 09:32:49;;;;;;;;;4.00;2.40;;;;;16.89;69.12;100475.97;4994581;28;45335;-60
2022/10/01 09:35:34;;;;;;;;;3.20;2.00;;;;;16.97;69.14;100491.31;4995574;28;45388;-60
2022/10/01 09:38:09;;;;;;;;;3.20;3.20;;;;;16.48;69.39;100415.41;4982924;28;46787;-60
2022/10/01 09:40:41;;;;;;;;;4.60;3.20;;;;;17.02;69.15;100496.94;4994516;28;45448;-60
2022/10/01 09:43:08;;;;;;;;;3.20;3.00;;;;;17.00;68.25;100507.41;4993322;28;45480;-60
2022/10/01 09:45:33;;;;;;;;;4.40;2.20;;;;;16.84;68.13;100484.22;4976704;28;45558;-62
2022/10/01 09:48:23;;;;;;;;;4.75;3.25;;;;;16.99;68.70;100512.13;5007521;28;47571;-59
2022/10/01 09:50:57;;;;;;;;;3.00;1.00;;;;;16.88;67.88;100477.06;5012616;28;45457;-60
2022/10/01 09:53:38;;;;;;;;;4.60;3.00;;;;;16.96;68.17;100498.78;5013103;28;45423;-59
2022/10/01 09:56:11;;;;;;;;;4.00;2.00;;;;;16.91;67.80;100498.72;4961949;28;45691;-58
2022/10/01 09:58:37;;;;;;;;;7.40;3.40;;;;;16.88;67.74;100488.16;4994843;28;46407;-60
2022/10/01 10:01:03;;;;;;;;;3.20;1.40;;;;;17.12;68.30;100510.91;4995961;28;45534;-63
2022/10/01 10:03:30;;;;;;;;;5.20;2.80;;;;;16.90;67.64;100467.41;4996211;28;45414;-61
2022/10/01 10:05:58;;;;;;;;;4.20;3.00;;;;;17.06;67.27;100481.44;4996111;28;45361;-60
2022/10/01 10:08:29;;;;;;;;;5.80;3.20;;;;;17.35;66.46;100531.09;5012117;28;46717;-61
2022/10/01 10:10:59;;;;;;;;;2.80;1.80;;;;;17.42;66.62;100530.88;5011775;28;45395;-61
2022/10/01 10:13:34;;;;;;;;;3.20;2.80;;;;;17.50;65.70;100533.16;5013633;28;45433;-61
2022/10/01 10:16:07;;;;;;;;;2.60;1.60;;;;;17.48;65.53;100535.38;5013414;28;45749;-60
2022/10/01 10:18:34;;;;;;;;;3.00;2.00;;;;;17.54;65.35;100536.22;5019996;28;47268;-61
2022/10/01 10:21:21;;;;;;;;;4.00;2.20;;;;;17.66;64.89;100539.69;5011973;28;45427;-58
2022/10/01 10:23:57;;;;;;;;;2.80;2.80;;;;;17.70;64.99;100529.72;5010657;28;45571;-60
2022/10/01 10:26:32;;;;;;;;;2.80;2.00;;;;;17.82;63.75;100542.59;4996711;28;45525;-58
2022/10/01 10:28:59;;;;;;;;;2.80;2.20;;;;;17.82;63.31;100542.59;5024622;28;45701;-60
2022/10/01 10:31:26;;;;;;;;;3.80;1.80;;;;;17.74;63.18;100539.22;5015957;28;45472;-61
2022/10/01 10:34:13;;;;;;;;;3.80;2.00;;;;;17.98;63.76;100546.31;4995944;28;45327;-58
2022/10/01 10:36:39;;;;;;;;;2.60;2.60;;;;;18.10;62.88;100537.81;4976973;28;45662;-58
2022/10/01 10:39:05;;;;;;;;;5.60;2.80;;;;;18.21;62.73;100531.22;4970988;28;47269;-59
2022/10/01 10:41:31;;;;;;;;;4.00;2.80;;;;;18.29;62.37;100539.03;4996275;28;45441;-57
2022/10/01 10:43:59;;;;;;;;;3.00;3.00;;;;;18.35;61.29;100548.22;4997175;28;45573;-61
2022/10/01 10:46:33;;;;;;;;;5.40;3.00;;;;;18.36;61.84;100549.91;5013654;28;45702;-59
2022/10/01 10:49:05;;;;;;;;;4.00;4.00;;;;;18.33;61.48;100549.59;4996553;28;46362;-63
2022/10/01 10:52:04;;;;;;;;;4.20;3.60;;;;;18.34;60.60;100538.22;4997005;28;45423;-61
2022/10/01 10:54:31;;;;;;;;;3.60;2.80;;;;;18.45;60.93;100560.53;4985467;28;45538;-60
2022/10/01 10:57:13;;;;;;;;;2.00;2.00;;;;;17.91;60.18;100487.38;5014885;28;45289;-61
2022/10/01 10:59:38;;;;;;;;;3.60;3.00;;;;;18.37;60.67;100564.63;5014379;28;46608;-61
2022/10/01 11:02:04;;;;;;;;;4.25;4.25;;;;;18.36;60.58;100565.75;5015164;28;45389;-61
2022/10/01 11:04:41;;;;;;;;;4.20;4.20;;;;;18.36;60.57;100562.97;5000018;28;45379;-61
2022/10/01 11:07:06;;;;;;;;;9.20;7.60;;;;;18.31;60.69;100565.72;4987122;28;45804;-60
2022/10/01 11:09:55;;;;;;;;;4.00;4.00;;;;;18.26;60.75;100578.47;4981551;28;46134;-60
2022/10/01 11:12:46;;;;;;;;;4.20;2.60;;;;;18.21;60.54;100572.91;4974481;28;45472;-61
2022/10/01 11:15:45;;;;;;;;;4.20;3.80;;;;;18.24;60.88;100583.44;4978027;28;45367;-61
2022/10/01 11:18:39;;;;;;;;;2.60;2.00;;;;;18.08;61.00;100559.47;4981263;28;45399;-63
2022/10/01 11:21:13;;;;;;;;;4.00;4.00;;;;;18.23;60.28;100592.03;5016545;28;46024;-62
2022/10/01 11:24:23;;;;;;;;;3.80;2.20;;;;;18.22;59.98;100596.78;5015035;28;45561;-61
2022/10/01 11:27:05;;;;;;;;;4.20;2.00;;;;;18.23;60.28;100592.03;4956440;28;45507;-62
2022/10/01 11:29:40;;;;;;;;;2.60;1.80;;;;;17.92;59.71;100553.75;4955761;28;45453;-62
2022/10/01 11:32:35;;;;;;;;;2.40;2.40;;;;;18.15;60.03;100594.22;4997551;28;46788;-61
2022/10/01 11:35:22;;;;;;;;;6.80;3.60;;;;;18.11;60.27;100572.81;4992003;28;45280;-59
2022/10/01 11:38:17;;;;;;;;;3.80;2.00;;;;;18.30;59.55;100589.88;4997344;28;45454;-60
2022/10/01 11:40:50;;;;;;;;;3.40;1.80;;;;;18.42;59.10;100586.91;4983507;28;45369;-59